Time;durP1;ratioP1;P1;durP2;ratioP2;P2;SDS_P1;SDS_P2;PMS_P1;PMS_P2;Temp;Humidity;BMP_temperature;BMP_pressure;BME280_temperature;BME280_humidity;BME280_pressure;Samples;Min_cycle;Max_cycle;Signal;HPM_P1;HPM_P2
2021/03/17 00:00:16;;;;;;;2.88;2.25;;;7.70;99.90;;;;;;5075258;28;20107;-81
2021/03/17 00:02:42;;;;;;;2.58;2.20;;;7.70;99.90;;;;;;5074323;28;20040;-81
2021/03/17 00:05:08;;;;;;;4.28;2.58;;;7.80;99.90;;;;;;5075614;28;20051;-81
2021/03/17 00:07:34;;;;;;;2.38;2.00;;;7.60;99.90;;;;;;5073374;28;20020;-81
2021/03/17 00:10:00;;;;;;;2.92;2.10;;;7.80;99.90;;;;;;5095381;28;20600;-81
2021/03/17 00:12:26;;;;;;;4.00;2.30;;;8.00;99.90;;;;;;5094628;28;20055;-81
2021/03/17 00:14:51;;;;;;;11.00;8.77;;;8.00;99.90;;;;;;5094714;28;20075;-81
2021/03/17 00:17:17;;;;;;;4.45;3.70;;;7.70;99.90;;;;;;5094528;28;20021;-81
2021/03/17 00:19:43;;;;;;;3.47;2.80;;;7.80;99.90;;;;;;5093684;28;20025;-81
2021/03/17 00:22:09;;;;;;;3.78;2.65;;;8.00;99.90;;;;;;5094341;28;20027;-81
2021/03/17 00:24:35;;;;;;;3.35;2.53;;;7.50;99.90;;;;;;5094296;28;20024;-81
2021/03/17 00:27:02;;;;;;;2.42;2.17;;;8.00;99.90;;;;;;5094603;28;20028;-81
2021/03/17 00:29:27;;;;;;;3.95;2.72;;;7.50;99.90;;;;;;5094957;28;20024;-81
2021/03/17 00:31:53;;;;;;;3.50;2.22;;;8.10;99.90;;;;;;5094620;28;20503;-81
2021/03/17 00:34:18;;;;;;;4.72;3.20;;;7.90;99.90;;;;;;5094009;28;20089;-81
2021/03/17 00:36:44;;;;;;;3.35;2.40;;;7.60;99.90;;;;;;5092934;28;20103;-81
2021/03/17 00:39:10;;;;;;;2.85;2.28;;;7.50;99.90;;;;;;5094057;28;20042;-81
2021/03/17 00:41:36;;;;;;;4.22;2.55;;;7.40;99.90;;;;;;5094268;28;20020;-81
2021/03/17 00:44:02;;;;;;;4.72;2.47;;;7.50;99.90;;;;;;5094344;28;20471;-81
2021/03/17 00:46:28;;;;;;;2.50;2.30;;;7.70;99.90;;;;;;5094547;28;20028;-81
2021/03/17 00:48:53;;;;;;;3.47;2.38;;;7.80;99.90;;;;;;5094022;28;20036;-81
2021/03/17 00:51:19;;;;;;;2.45;2.17;;;7.60;99.90;;;;;;5076187;28;20111;-81
2021/03/17 00:53:44;;;;;;;2.55;2.05;;;7.70;99.90;;;;;;5073442;28;20039;-81
2021/03/17 00:56:10;;;;;;;2.60;2.08;;;7.90;99.90;;;;;;5078072;28;20039;-81
2021/03/17 00:58:36;;;;;;;3.38;2.40;;;8.10;99.90;;;;;;5074010;28;20032;-81
2021/03/17 01:01:01;;;;;;;3.45;2.20;;;8.00;99.90;;;;;;5073498;28;20028;-81
2021/03/17 01:03:27;;;;;;;3.40;2.47;;;7.70;99.90;;;;;;5073405;28;20132;-81
2021/03/17 01:05:52;;;;;;;2.78;2.20;;;7.70;99.90;;;;;;5073593;28;20102;-81
2021/03/17 01:08:18;;;;;;;2.90;2.20;;;7.60;99.90;;;;;;5073419;28;20456;-81
2021/03/17 01:10:46;;;;;;;2.80;2.10;;;7.90;99.90;;;;;;5074658;28;20025;-81
2021/03/17 01:13:12;;;;;;;3.33;2.40;;;7.80;99.90;;;;;;5073258;28;20032;-81
2021/03/17 01:15:38;;;;;;;3.47;2.08;;;7.60;99.90;;;;;;5073769;28;20028;-81
2021/03/17 01:18:05;;;;;;;4.40;2.40;;;7.60;99.90;;;;;;5055477;28;20042;-81
2021/03/17 01:20:32;;;;;;;3.10;2.50;;;7.60;99.90;;;;;;5055383;28;20447;-81
2021/03/17 01:22:58;;;;;;;3.97;2.35;;;7.90;99.90;;;;;;5073139;28;20074;-81
2021/03/17 01:25:38;;;;;;;3.75;2.47;;;7.70;99.90;;;;;;5074073;28;20078;-81
2021/03/17 01:28:08;;;;;;;2.38;2.17;;;7.60;99.90;;;;;;5073118;28;20024;-81
2021/03/17 01:30:38;;;;;;;2.58;2.20;;;7.40;99.90;;;;;;5072939;28;20013;-81
2021/03/17 01:33:04;;;;;;;4.93;2.70;;;7.50;99.90;;;;;;5073118;28;20442;-81
2021/03/17 01:35:31;;;;;;;3.13;2.33;;;7.20;99.90;;;;;;5072826;28;20028;-81
2021/03/17 01:37:57;;;;;;;4.03;2.45;;;7.20;99.90;;;;;;5072705;28;20438;-81
2021/03/17 01:40:25;;;;;;;4.00;2.42;;;7.70;99.90;;;;;;5074198;28;20028;-81
2021/03/17 01:42:51;;;;;;;3.67;2.47;;;7.30;99.90;;;;;;5072716;28;20024;-81
2021/03/17 01:45:18;;;;;;;3.72;2.10;;;7.40;99.90;;;;;;5054907;28;20020;-81
2021/03/17 01:47:45;;;;;;;3.13;2.28;;;7.40;99.90;;;;;;5073058;28;20159;-81
2021/03/17 01:50:20;;;;;;;2.78;2.30;;;7.30;99.90;;;;;;5072892;28;20024;-81
2021/03/17 01:52:46;;;;;;;2.40;2.13;;;7.30;99.90;;;;;;5072336;28;20487;-81
2021/03/17 01:55:12;;;;;;;2.85;2.50;;;7.50;99.90;;;;;;5080323;28;20029;-81
2021/03/17 01:57:38;;;;;;;2.35;2.15;;;7.10;99.90;;;;;;5072636;28;20037;-81
2021/03/17 02:00:10;;;;;;;2.80;2.33;;;7.40;99.90;;;;;;5072849;28;20047;-81
2021/03/17 02:02:38;;;;;;;2.28;2.08;;;7.20;99.90;;;;;;5072281;28;20028;-81
2021/03/17 02:05:16;;;;;;;3.10;2.30;;;7.80;99.90;;;;;;5072298;28;20039;-81
2021/03/17 02:07:42;;;;;;;4.18;2.55;;;7.30;99.90;;;;;;5072189;28;20035;-81
2021/03/17 02:10:13;;;;;;;3.15;2.72;;;7.60;99.90;;;;;;5074713;28;20033;-81
2021/03/17 02:12:47;;;;;;;3.72;2.40;;;7.30;99.90;;;;;;5072413;28;20078;-81
2021/03/17 02:15:33;;;;;;;3.28;2.50;;;7.60;99.90;;;;;;5072646;28;20495;-81
2021/03/17 02:18:05;;;;;;;5.80;2.67;;;7.10;99.90;;;;;;5056902;28;20056;-82
2021/03/17 02:21:16;;;;;;;3.15;2.80;;;7.30;99.90;;;;;;5092629;28;20028;-81
2021/03/17 02:24:01;;;;;;;4.25;2.67;;;7.30;99.90;;;;;;5092507;28;20034;-81
2021/03/17 02:26:58;;;;;;;3.53;2.70;;;7.30;99.90;;;;;;5072108;28;20024;-81
2021/03/17 02:29:57;;;;;;;2.95;2.42;;;7.30;99.90;;;;;;5072091;28;20028;-81
2021/03/17 02:33:04;;;;;;;3.95;2.90;;;7.20;99.90;;;;;;5072368;28;20578;-81
2021/03/17 02:35:31;;;;;;;3.75;2.58;;;7.10;99.90;;;;;;5080075;28;20384;-81
2021/03/17 02:38:01;;;;;;;2.95;2.53;;;7.10;99.90;;;;;;5092273;28;20492;-81
2021/03/17 02:40:32;;;;;;;3.95;2.55;;;7.00;99.90;;;;;;5077801;28;20109;-81
2021/03/17 02:43:17;;;;;;;4.40;2.70;;;7.00;99.90;;;;;;5071325;28;20489;-81
2021/03/17 02:45:46;;;;;;;4.20;2.90;;;7.10;99.90;;;;;;5071913;28;20027;-81
2021/03/17 02:48:17;;;;;;;3.90;3.10;;;7.20;99.90;;;;;;5072079;28;20487;-81
2021/03/17 02:50:46;;;;;;;5.50;2.90;;;7.60;99.90;;;;;;5071733;28;20496;-81
2021/03/17 02:53:15;;;;;;;3.70;2.78;;;7.20;99.90;;;;;;5071514;28;20036;-81
2021/03/17 02:55:48;;;;;;;3.40;2.85;;;7.20;99.90;;;;;;5074288;28;20081;-81
2021/03/17 02:58:15;;;;;;;3.30;2.80;;;7.00;99.90;;;;;;5072131;28;20024;-81
2021/03/17 03:00:40;;;;;;;3.78;2.70;;;7.50;99.90;;;;;;5072203;28;20020;-81
2021/03/17 03:03:08;;;;;;;5.65;2.80;;;7.20;99.90;;;;;;5071308;28;20045;-81
2021/03/17 03:05:34;;;;;;;3.88;2.85;;;7.70;99.90;;;;;;5071327;28;20025;-81
2021/03/17 03:08:00;;;;;;;3.40;2.80;;;7.20;99.90;;;;;;5071739;28;20036;-81
2021/03/17 03:10:29;;;;;;;3.30;3.00;;;7.10;99.90;;;;;;5071341;28;20485;-81
2021/03/17 03:12:56;;;;;;;3.55;3.15;;;7.60;99.90;;;;;;5085595;28;20085;-81
2021/03/17 03:15:25;;;;;;;3.47;2.80;;;7.60;99.90;;;;;;5092460;28;20024;-81
2021/03/17 03:17:51;;;;;;;4.55;2.78;;;7.40;99.90;;;;;;5091883;28;20038;-81
2021/03/17 03:20:20;;;;;;;3.63;2.55;;;7.40;99.90;;;;;;5091444;28;20020;-81
2021/03/17 03:22:47;;;;;;;3.40;3.05;;;7.20;99.90;;;;;;5091656;28;20035;-81
2021/03/17 03:25:15;;;;;;;2.80;2.50;;;7.20;99.90;;;;;;5090970;28;20021;-81
2021/03/17 03:27:42;;;;;;;3.47;2.60;;;7.60;99.90;;;;;;5092056;28;20024;-81
2021/03/17 03:30:18;;;;;;;3.47;3.05;;;7.20;99.90;;;;;;5091443;28;20023;-81
2021/03/17 03:32:44;;;;;;;4.40;3.03;;;7.20;99.90;;;;;;5091680;28;20057;-81
2021/03/17 03:35:12;;;;;;;3.47;2.70;;;7.70;99.90;;;;;;5091055;28;20032;-81
2021/03/17 03:37:38;;;;;;;3.15;2.85;;;7.20;99.90;;;;;;5090651;28;20031;-81
2021/03/17 03:40:13;;;;;;;4.85;2.60;;;7.20;99.90;;;;;;5080659;28;20024;-81
2021/03/17 03:42:39;;;;;;;3.50;3.20;;;7.20;99.90;;;;;;5091742;28;20069;-81
2021/03/17 03:45:07;;;;;;;2.95;2.65;;;7.60;99.90;;;;;;5091556;28;20031;-81
2021/03/17 03:47:33;;;;;;;3.92;2.95;;;7.40;99.90;;;;;;5091559;28;20020;-81
2021/03/17 03:50:00;;;;;;;4.13;2.90;;;7.50;99.90;;;;;;5091614;28;20373;-81
2021/03/17 03:52:33;;;;;;;3.55;2.75;;;7.30;99.90;;;;;;5091265;28;20511;-81
2021/03/17 03:55:18;;;;;;;3.28;2.88;;;7.30;99.90;;;;;;5075029;28;20024;-81
2021/03/17 03:57:53;;;;;;;4.35;3.13;;;7.40;99.90;;;;;;5075299;28;20086;-81
2021/03/17 04:00:23;;;;;;;5.15;3.15;;;7.40;99.90;;;;;;5074891;28;20036;-81
2021/03/17 04:02:52;;;;;;;4.50;3.60;;;7.40;99.90;;;;;;5074211;28;20123;-81
2021/03/17 04:05:21;;;;;;;3.17;2.88;;;7.30;99.90;;;;;;5074791;28;20020;-81
2021/03/17 04:07:50;;;;;;;4.93;4.00;;;7.20;99.90;;;;;;5076711;28;20021;-81
2021/03/17 04:10:19;;;;;;;5.18;4.45;;;6.90;99.90;;;;;;5094284;28;20073;-81
2021/03/17 04:12:46;;;;;;;4.40;3.92;;;6.90;99.90;;;;;;5095076;28;20024;-82
2021/03/17 04:15:15;;;;;;;5.20;3.88;;;6.90;99.90;;;;;;5095340;28;20028;-82
2021/03/17 04:17:55;;;;;;;5.88;3.90;;;7.00;99.90;;;;;;5094309;28;20043;-81
2021/03/17 04:20:27;;;;;;;4.47;3.90;;;7.00;99.90;;;;;;5076454;28;20391;-81
2021/03/17 04:22:54;;;;;;;3.72;3.40;;;7.50;99.90;;;;;;5086029;28;20032;-81
2021/03/17 04:25:21;;;;;;;4.10;3.70;;;7.30;99.90;;;;;;5093246;28;20048;-81
2021/03/17 04:27:50;;;;;;;3.42;3.13;;;7.60;99.90;;;;;;5094736;28;20027;-81
2021/03/17 04:30:18;;;;;;;3.10;2.80;;;7.20;99.90;;;;;;5094843;28;20099;-81
2021/03/17 04:32:46;;;;;;;2.70;2.50;;;7.10;99.90;;;;;;5094141;28;20492;-81
2021/03/17 04:35:14;;;;;;;2.60;2.40;;;7.00;99.90;;;;;;5094385;28;20028;-81
2021/03/17 04:37:42;;;;;;;3.67;2.60;;;7.30;99.90;;;;;;5085315;28;20079;-81
2021/03/17 04:40:10;;;;;;;5.28;2.83;;;7.20;99.90;;;;;;5074467;28;20025;-81
2021/03/17 04:42:36;;;;;;;3.40;2.63;;;6.80;99.90;;;;;;5074228;28;20032;-81
2021/03/17 04:45:03;;;;;;;3.50;2.97;;;7.10;99.90;;;;;;5074154;28;20400;-81
2021/03/17 04:47:30;;;;;;;3.10;2.60;;;7.00;99.90;;;;;;5073685;28;20024;-81
2021/03/17 04:49:56;;;;;;;3.80;3.05;;;7.50;99.90;;;;;;5074410;28;20017;-81
2021/03/17 04:52:24;;;;;;;2.92;2.58;;;7.00;99.90;;;;;;5082105;28;20040;-81
2021/03/17 04:54:52;;;;;;;3.13;2.83;;;7.40;99.90;;;;;;5094098;28;20024;-81
2021/03/17 04:57:21;;;;;;;4.80;3.22;;;7.50;99.90;;;;;;5076043;28;20032;-81
2021/03/17 04:59:49;;;;;;;6.10;3.53;;;7.00;99.90;;;;;;5094136;28;20476;-81
2021/03/17 05:02:19;;;;;;;4.20;3.10;;;7.00;99.90;;;;;;5093723;28;20024;-81
2021/03/17 05:04:47;;;;;;;4.97;4.03;;;6.90;99.90;;;;;;5092793;28;20059;-81
2021/03/17 05:07:14;;;;;;;4.50;3.38;;;7.00;99.90;;;;;;5082810;28;20059;-81
2021/03/17 05:09:41;;;;;;;4.30;3.63;;;6.70;99.90;;;;;;5093686;28;20032;-81
2021/03/17 05:12:08;;;;;;;3.92;3.53;;;6.70;99.90;;;;;;5093866;28;20028;-81
2021/03/17 05:14:35;;;;;;;5.55;3.42;;;6.80;99.90;;;;;;5081411;28;20036;-81
2021/03/17 05:17:02;;;;;;;5.03;3.67;;;6.90;99.90;;;;;;5073017;28;20471;-81
2021/03/17 05:19:32;;;;;;;3.53;3.15;;;7.10;99.90;;;;;;5071636;28;20024;-81
2021/03/17 05:21:58;;;;;;;5.20;3.78;;;7.60;99.90;;;;;;5056473;28;20107;-81
2021/03/17 05:24:26;;;;;;;3.92;3.30;;;7.30;99.90;;;;;;5072389;28;20024;-81
2021/03/17 05:26:55;;;;;;;4.80;3.72;;;7.20;99.90;;;;;;5072824;28;20035;-81
2021/03/17 05:29:24;;;;;;;3.92;3.47;;;7.30;99.90;;;;;;5072617;28;20046;-81
2021/03/17 05:31:52;;;;;;;6.03;4.28;;;7.50;99.90;;;;;;5073276;28;20099;-81
2021/03/17 05:34:18;;;;;;;3.72;3.00;;;7.10;99.90;;;;;;5072969;28;20024;-81
2021/03/17 05:36:43;;;;;;;4.65;2.95;;;7.00;99.90;;;;;;5085716;28;20115;-81
2021/03/17 05:39:09;;;;;;;4.25;2.97;;;7.30;99.90;;;;;;5084861;28;20043;-81
2021/03/17 05:41:35;;;;;;;4.07;2.58;;;7.10;99.90;;;;;;5089352;28;20031;-81
2021/03/17 05:44:02;;;;;;;3.05;2.75;;;7.60;99.90;;;;;;5085446;28;20039;-81
2021/03/17 05:46:28;;;;;;;3.20;2.80;;;7.20;99.90;;;;;;5073313;28;20507;-81
2021/03/17 05:48:57;;;;;;;2.88;2.58;;;7.50;99.90;;;;;;5077009;28;20020;-81
2021/03/17 05:51:26;;;;;;;3.00;2.67;;;7.00;99.90;;;;;;5093265;28;20368;-81
2021/03/17 05:53:52;;;;;;;3.35;3.05;;;6.80;99.90;;;;;;5093897;28;20020;-81
2021/03/17 05:56:18;;;;;;;3.22;2.85;;;6.80;99.90;;;;;;5093743;28;20031;-81
2021/03/17 05:58:45;;;;;;;3.50;2.92;;;7.00;99.90;;;;;;5093600;28;20032;-81
2021/03/17 06:01:16;;;;;;;3.28;2.53;;;6.90;99.90;;;;;;5094038;28;20020;-81
2021/03/17 06:03:43;;;;;;;4.32;2.97;;;7.20;99.90;;;;;;5093633;28;20519;-81
2021/03/17 06:06:10;;;;;;;3.65;2.80;;;7.00;99.90;;;;;;5080797;28;20480;-81
2021/03/17 06:08:46;;;;;;;3.17;2.88;;;7.00;99.90;;;;;;5073371;28;20074;-81
2021/03/17 06:11:13;;;;;;;3.45;3.03;;;7.00;99.90;;;;;;5073544;28;20048;-81
2021/03/17 06:13:45;;;;;;;4.50;3.03;;;7.30;99.90;;;;;;5073125;28;20448;-81
2021/03/17 06:16:15;;;;;;;3.00;2.70;;;7.30;99.90;;;;;;5073302;28;20013;-81
2021/03/17 06:18:44;;;;;;;3.30;3.00;;;6.90;99.90;;;;;;5073070;28;20025;-81
2021/03/17 06:21:17;;;;;;;3.30;2.70;;;7.40;99.90;;;;;;5075962;28;20417;-81
2021/03/17 06:23:44;;;;;;;3.40;3.03;;;7.10;99.90;;;;;;5055389;28;20028;-81
2021/03/17 06:26:09;;;;;;;4.15;3.25;;;6.80;99.90;;;;;;5073380;28;20439;-81
2021/03/17 06:28:35;;;;;;;3.33;3.03;;;6.80;99.90;;;;;;5072656;28;20028;-81
2021/03/17 06:31:03;;;;;;;3.38;2.92;;;6.70;99.90;;;;;;5072852;28;20048;-81
2021/03/17 06:33:29;;;;;;;3.28;2.97;;;6.80;99.90;;;;;;5073021;28;20024;-81
2021/03/17 06:36:14;;;;;;;5.03;3.25;;;7.30;99.90;;;;;;5088868;28;20042;-81
2021/03/17 06:38:40;;;;;;;3.15;2.85;;;6.90;99.90;;;;;;5092184;28;20034;-81
2021/03/17 06:41:06;;;;;;;3.53;3.22;;;7.10;99.90;;;;;;5092703;28;20099;-81
2021/03/17 06:43:40;;;;;;;3.80;3.13;;;7.30;99.90;;;;;;5092857;28;20051;-81
2021/03/17 06:46:09;;;;;;;3.65;3.33;;;7.40;99.90;;;;;;5082090;28;20069;-81
2021/03/17 06:48:37;;;;;;;4.05;3.65;;;7.20;99.90;;;;;;5072086;28;20048;-80
2021/03/17 06:51:10;;;;;;;5.82;3.78;;;7.40;99.90;;;;;;5089768;28;20404;-80
2021/03/17 06:53:53;;;;;;;5.35;3.83;;;7.10;99.90;;;;;;5073713;28;20028;-81
2021/03/17 06:56:27;;;;;;;6.28;4.03;;;7.10;99.90;;;;;;5091609;28;20043;-80
2021/03/17 06:59:06;;;;;;;5.53;3.90;;;7.10;99.90;;;;;;5091871;28;20396;-81
2021/03/17 07:01:40;;;;;;;7.53;5.32;;;7.10;99.90;;;;;;5091755;28;20023;-80
2021/03/17 07:04:11;;;;;;;4.45;3.75;;;7.20;99.90;;;;;;5089830;28;20036;-80
2021/03/17 07:06:39;;;;;;;9.50;5.35;;;7.20;99.90;;;;;;5092153;28;20048;-81
2021/03/17 07:09:27;;;;;;;4.97;3.75;;;7.10;99.90;;;;;;5092159;28;20097;-81
2021/03/17 07:12:05;;;;;;;60.30;26.52;;;6.90;99.90;;;;;;5071783;28;20070;-81
2021/03/17 07:14:41;;;;;;;11.63;7.32;;;7.40;99.90;;;;;;5090812;28;20039;-80
2021/03/17 07:17:42;;;;;;;49.78;24.15;;;7.10;99.90;;;;;;5092234;28;20476;-81
2021/03/17 07:20:08;;;;;;;25.90;14.10;;;7.10;99.90;;;;;;4989420;28;20088;-80
2021/03/17 07:22:33;;;;;;;6.30;4.10;;;7.00;99.90;;;;;;4989735;28;20045;-80
2021/03/17 07:25:04;;;;;;;19.70;10.75;;;7.10;99.90;;;;;;4990964;28;20031;-82
2021/03/17 07:27:32;;;;;;;8.70;5.03;;;7.10;99.90;;;;;;4991090;28;20031;-82
2021/03/17 07:29:57;;;;;;;10.23;5.55;;;7.60;99.90;;;;;;4992983;28;20070;-83
2021/03/17 07:32:26;;;;;;;9.80;6.05;;;7.40;99.90;;;;;;4993640;28;20528;-81
2021/03/17 07:34:52;;;;;;;11.02;4.50;;;7.00;99.90;;;;;;4992474;28;20050;-81
2021/03/17 07:37:25;;;;;;;4.93;3.60;;;7.00;99.90;;;;;;4994020;28;20082;-81
2021/03/17 07:39:51;;;;;;;9.00;4.18;;;7.00;99.90;;;;;;4993973;28;20045;-81
2021/03/17 07:42:21;;;;;;;13.73;5.55;;;7.40;99.90;;;;;;4994031;28;20038;-81
2021/03/17 07:44:47;;;;;;;34.78;17.30;;;7.40;99.90;;;;;;4994045;28;20050;-80
2021/03/17 07:47:13;;;;;;;23.60;14.25;;;7.00;99.90;;;;;;4994278;28;20030;-81
2021/03/17 07:49:42;;;;;;;5.50;3.20;;;6.90;99.90;;;;;;4983344;28;20027;-81
2021/03/17 07:52:14;;;;;;;10.98;5.03;;;7.40;99.90;;;;;;4974619;28;20098;-81
2021/03/17 07:54:48;;;;;;;13.20;5.57;;;7.10;99.90;;;;;;5052386;28;20040;-81
2021/03/17 07:57:15;;;;;;;10.02;3.25;;;7.30;99.90;;;;;;5095796;28;20036;-81
2021/03/17 07:59:42;;;;;;;6.78;2.22;;;6.90;99.90;;;;;;5095538;28;20032;-81
2021/03/17 08:02:10;;;;;;;12.38;5.80;;;6.90;99.90;;;;;;5077289;28;20067;-81
2021/03/17 08:04:35;;;;;;;10.20;4.30;;;7.30;99.90;;;;;;5095271;28;20500;-81
2021/03/17 08:07:04;;;;;;;10.70;3.58;;;7.00;99.90;;;;;;5095326;28;20125;-81
2021/03/17 08:09:30;;;;;;;9.40;2.63;;;7.20;99.90;;;;;;5095169;28;20024;-81
2021/03/17 08:11:59;;;;;;;9.57;4.13;;;7.30;99.90;;;;;;5095425;28;20024;-81
2021/03/17 08:14:26;;;;;;;6.15;2.42;;;7.40;99.90;;;;;;5095383;28;20054;-81
2021/03/17 08:16:52;;;;;;;5.88;2.80;;;7.20;99.90;;;;;;5095162;28;20028;-81
2021/03/17 08:19:22;;;;;;;8.82;2.63;;;7.20;99.90;;;;;;5095321;28;20480;-81
2021/03/17 08:21:49;;;;;;;8.10;2.63;;;7.10;99.90;;;;;;5095217;28;20035;-81
2021/03/17 08:24:36;;;;;;;13.18;6.45;;;7.00;99.90;;;;;;5094836;28;20024;-81
2021/03/17 08:27:07;;;;;;;5.78;2.92;;;7.20;99.90;;;;;;5095052;28;20024;-81
2021/03/17 08:29:40;;;;;;;16.80;11.27;;;7.30;99.90;;;;;;5076803;28;20407;-81
2021/03/17 08:32:07;;;;;;;208.70;153.05;;;7.20;99.90;;;;;;5094961;28;20499;-81
2021/03/17 08:34:34;;;;;;;7.35;5.22;;;7.70;99.90;;;;;;5094894;28;20499;-81
2021/03/17 08:37:11;;;;;;;15.00;11.02;;;7.60;99.90;;;;;;5094824;28;20024;-81
2021/03/17 08:39:36;;;;;;;9.23;4.70;;;7.30;99.90;;;;;;5094528;28;20100;-81
2021/03/17 08:42:28;;;;;;;8.35;2.88;;;7.30;99.90;;;;;;5094690;28;20472;-81
2021/03/17 08:44:56;;;;;;;7.53;2.50;;;7.50;99.90;;;;;;5094639;28;20016;-81
2021/03/17 08:47:41;;;;;;;4.93;3.10;;;7.60;99.90;;;;;;5094912;28;20013;-81
2021/03/17 08:50:23;;;;;;;4.90;2.30;;;7.40;99.90;;;;;;5094610;28;20036;-81
2021/03/17 08:52:51;;;;;;;7.07;2.40;;;7.20;99.90;;;;;;5094157;28;20031;-81
2021/03/17 08:55:29;;;;;;;5.40;2.00;;;7.60;99.90;;;;;;5094814;28;20054;-81
2021/03/17 08:58:05;;;;;;;8.07;2.00;;;7.40;99.90;;;;;;5094640;28;20024;-81
2021/03/17 09:00:45;;;;;;;4.25;1.88;;;7.40;99.90;;;;;;5094576;28;20605;-81
2021/03/17 09:03:30;;;;;;;6.65;2.15;;;7.40;99.90;;;;;;5094279;28;20423;-81
2021/03/17 09:06:17;;;;;;;7.53;1.98;;;7.80;99.90;;;;;;5094233;28;20028;-81
2021/03/17 09:09:06;;;;;;;5.22;2.10;;;7.30;99.90;;;;;;5094111;28;20088;-81
2021/03/17 09:11:32;;;;;;;6.55;2.47;;;7.50;99.90;;;;;;5094268;28;20107;-81
2021/03/17 09:14:05;;;;;;;3.97;2.40;;;8.00;99.90;;;;;;5094229;28;20124;-81
2021/03/17 09:16:34;;;;;;;5.70;2.60;;;7.60;99.90;;;;;;5094322;28;20457;-81
2021/03/17 09:19:12;;;;;;;4.53;2.03;;;7.70;99.90;;;;;;5093922;28;20020;-81
2021/03/17 09:21:48;;;;;;;7.88;2.20;;;7.90;99.90;;;;;;5093764;28;20077;-81
2021/03/17 09:24:31;;;;;;;3.78;1.90;;;7.60;99.90;;;;;;5093994;28;20464;-81
2021/03/17 09:27:01;;;;;;;4.07;2.00;;;7.70;99.90;;;;;;5093773;28;20020;-81
2021/03/17 09:29:26;;;;;;;7.35;2.30;;;7.80;99.90;;;;;;5094000;28;20553;-81
2021/03/17 09:31:55;;;;;;;4.13;1.98;;;8.00;99.90;;;;;;5093767;28;20028;-81
2021/03/17 09:34:29;;;;;;;7.53;2.13;;;7.90;99.90;;;;;;5093601;28;20036;-81
2021/03/17 09:37:07;;;;;;;7.57;2.03;;;7.50;99.90;;;;;;5093224;28;20093;-81
2021/03/17 09:39:37;;;;;;;6.63;2.45;;;7.90;99.90;;;;;;5093840;28;20521;-81
2021/03/17 09:42:04;;;;;;;8.25;2.17;;;7.80;99.90;;;;;;5093601;28;20472;-81
2021/03/17 09:44:30;;;;;;;5.30;2.58;;;7.40;99.90;;;;;;5093634;28;20272;-81
2021/03/17 09:46:56;;;;;;;6.03;2.08;;;7.80;99.90;;;;;;5093461;28;20451;-81
2021/03/17 09:49:26;;;;;;;5.75;2.45;;;7.50;99.90;;;;;;5093525;28;20020;-81
2021/03/17 09:52:03;;;;;;;6.85;2.08;;;8.00;99.90;;;;;;5092750;28;20480;-81
2021/03/17 09:54:31;;;;;;;5.18;2.05;;;7.60;99.90;;;;;;5075272;28;20024;-81
2021/03/17 09:57:06;;;;;;;11.18;5.10;;;7.60;99.90;;;;;;5093129;28;20024;-81
2021/03/17 09:59:36;;;;;;;12.25;6.72;;;7.50;99.90;;;;;;5074956;28;20443;-81
2021/03/17 10:02:05;;;;;;;13.57;5.40;;;7.90;99.90;;;;;;5093203;28;20028;-81
2021/03/17 10:04:43;;;;;;;7.57;4.45;;;7.60;99.90;;;;;;5074872;28;20408;-81
2021/03/17 10:07:23;;;;;;;5.72;2.70;;;7.70;99.90;;;;;;5093281;28;20369;-81
2021/03/17 10:09:50;;;;;;;6.05;2.42;;;7.90;99.90;;;;;;5074920;28;20024;-81
2021/03/17 10:12:18;;;;;;;5.53;2.03;;;8.00;99.90;;;;;;5092895;28;20030;-81
2021/03/17 10:14:52;;;;;;;8.38;3.88;;;7.60;99.90;;;;;;5093092;28;20077;-81
2021/03/17 10:17:20;;;;;;;4.35;2.40;;;7.80;99.90;;;;;;5093216;28;20028;-81
2021/03/17 10:19:51;;;;;;;5.90;3.40;;;7.70;99.90;;;;;;5092661;28;20024;-81
2021/03/17 10:22:17;;;;;;;8.85;7.57;;;7.80;99.90;;;;;;5092885;28;20020;-81
2021/03/17 10:24:46;;;;;;;5.68;3.38;;;7.80;99.90;;;;;;5092863;28;20477;-81
2021/03/17 10:27:20;;;;;;;5.25;3.38;;;7.70;99.90;;;;;;5092813;28;20028;-81
2021/03/17 10:29:48;;;;;;;3.30;2.00;;;7.80;99.90;;;;;;5092961;28;20016;-81
2021/03/17 10:32:17;;;;;;;5.90;2.13;;;7.90;99.90;;;;;;5092662;28;20028;-81
2021/03/17 10:34:43;;;;;;;4.30;2.50;;;8.10;99.90;;;;;;5092343;28;20081;-81
2021/03/17 10:37:14;;;;;;;7.05;4.18;;;8.20;99.90;;;;;;5092714;28;20031;-81
2021/03/17 10:39:40;;;;;;;4.35;2.90;;;8.10;99.90;;;;;;5092774;28;20028;-80
2021/03/17 10:42:18;;;;;;;5.20;3.83;;;8.20;99.90;;;;;;5092506;28;20443;-80
2021/03/17 10:44:43;;;;;;;4.93;2.17;;;8.20;99.90;;;;;;5092595;28;20016;-80
2021/03/17 10:47:11;;;;;;;7.25;4.72;;;8.10;99.90;;;;;;5092549;28;20092;-80
2021/03/17 10:49:47;;;;;;;4.30;2.10;;;8.20;99.90;;;;;;5092263;28;20012;-80
2021/03/17 10:52:13;;;;;;;5.30;2.75;;;8.30;99.90;;;;;;5092541;28;20031;-80
2021/03/17 10:54:44;;;;;;;3.60;2.80;;;8.50;99.90;;;;;;5092627;28;20059;-80
2021/03/17 10:57:19;;;;;;;2.97;2.20;;;8.30;99.90;;;;;;5092375;28;20024;-80
2021/03/17 10:59:44;;;;;;;6.18;2.45;;;8.60;99.90;;;;;;5092468;28;20130;-80
2021/03/17 11:02:20;;;;;;;4.47;3.83;;;8.70;99.90;;;;;;5091301;28;20067;-80
2021/03/17 11:05:11;;;;;;;6.63;2.60;;;8.80;99.90;;;;;;5092214;28;20032;-80
2021/03/17 11:07:59;;;;;;;3.67;2.97;;;8.90;99.90;;;;;;5092210;28;20031;-80
2021/03/17 11:10:53;;;;;;;4.53;2.50;;;9.20;99.90;;;;;;5092405;28;20016;-80
2021/03/17 11:13:18;;;;;;;5.13;2.10;;;9.90;99.90;;;;;;5092423;28;20384;-80
2021/03/17 11:15:51;;;;;;;3.42;1.80;;;10.10;99.90;;;;;;5074242;28;20024;-80
2021/03/17 11:18:23;;;;;;;1.95;1.65;;;10.00;99.90;;;;;;5092027;28;20479;-80
2021/03/17 11:20:49;;;;;;;2.72;1.83;;;10.30;99.90;;;;;;5092168;28;20069;-80
2021/03/17 11:23:23;;;;;;;3.25;1.92;;;10.00;99.90;;;;;;5092263;28;20051;-80
2021/03/17 11:25:50;;;;;;;3.10;2.67;;;9.50;99.90;;;;;;5092231;28;20023;-80
2021/03/17 11:28:22;;;;;;;2.58;2.00;;;9.40;99.90;;;;;;5074076;28;20161;-80
2021/03/17 11:30:59;;;;;;;2.60;1.95;;;9.00;99.90;;;;;;5092268;28;20047;-80
2021/03/17 11:33:25;;;;;;;3.00;2.70;;;9.10;99.90;;;;;;5091678;28;20511;-80
2021/03/17 11:35:53;;;;;;;2.97;1.80;;;9.40;99.90;;;;;;5091752;28;20036;-80
2021/03/17 11:38:20;;;;;;;2.50;2.17;;;9.30;99.90;;;;;;5092299;28;20024;-80
2021/03/17 11:40:47;;;;;;;2.50;2.30;;;9.20;99.90;;;;;;5092177;28;20020;-80
2021/03/17 11:43:17;;;;;;;2.22;2.03;;;9.30;99.90;;;;;;5092126;28;20035;-80
2021/03/17 11:45:44;;;;;;;2.20;2.00;;;9.10;99.90;;;;;;5092073;28;20020;-80
2021/03/17 11:48:11;;;;;;;2.85;2.13;;;9.30;99.90;;;;;;5091394;28;20024;-80
2021/03/17 11:50:39;;;;;;;2.42;2.17;;;9.50;99.90;;;;;;5092157;28;20023;-80
2021/03/17 11:53:06;;;;;;;2.45;2.00;;;9.40;99.90;;;;;;5091879;28;20024;-80
2021/03/17 11:55:32;;;;;;;2.20;2.00;;;9.50;99.90;;;;;;5092028;28;20055;-80
2021/03/17 11:57:58;;;;;;;2.60;2.40;;;9.50;99.90;;;;;;5091978;28;20067;-80
2021/03/17 12:00:25;;;;;;;3.17;2.30;;;9.50;99.90;;;;;;5091846;28;20024;-80
2021/03/17 12:02:50;;;;;;;2.05;1.90;;;9.80;99.90;;;;;;5091215;28;20123;-80
2021/03/17 12:05:18;;;;;;;2.47;2.28;;;9.80;99.90;;;;;;5091821;28;20163;-80
2021/03/17 12:07:44;;;;;;;3.53;2.80;;;9.70;99.90;;;;;;5091852;28;20021;-80
2021/03/17 12:10:10;;;;;;;3.60;2.60;;;9.60;99.90;;;;;;5091649;28;20480;-80
2021/03/17 12:12:37;;;;;;;2.88;2.35;;;10.00;99.90;;;;;;5091924;28;20032;-80
2021/03/17 12:15:16;;;;;;;2.53;2.33;;;9.50;99.90;;;;;;5095293;28;20024;-80
2021/03/17 12:17:41;;;;;;;2.65;2.45;;;9.30;99.90;;;;;;5094627;28;20070;-80
2021/03/17 12:20:09;;;;;;;2.63;1.95;;;9.30;99.90;;;;;;5095207;28;20450;-80
2021/03/17 12:22:35;;;;;;;2.65;2.45;;;9.40;99.90;;;;;;5095159;28;20028;-80
2021/03/17 12:25:02;;;;;;;5.55;5.05;;;10.00;99.90;;;;;;5095161;28;20059;-80
2021/03/17 12:27:29;;;;;;;7.85;7.15;;;10.40;99.90;;;;;;5095041;28;20020;-80
2021/03/17 12:29:54;;;;;;;6.28;5.78;;;10.40;99.90;;;;;;5094690;28;20013;-80
2021/03/17 12:32:20;;;;;;;5.63;5.20;;;10.20;99.90;;;;;;5095044;28;20070;-80
2021/03/17 12:34:46;;;;;;;12.13;8.30;;;10.10;99.90;;;;;;5094940;28;20493;-80
2021/03/17 12:37:12;;;;;;;3.08;2.78;;;9.90;99.90;;;;;;5094783;28;20024;-80
2021/03/17 12:39:41;;;;;;;7.97;4.93;;;9.80;99.90;;;;;;5094884;28;20020;-80
2021/03/17 12:42:07;;;;;;;3.50;2.17;;;9.60;99.90;;;;;;5094740;28;20507;-80
2021/03/17 12:44:34;;;;;;;4.05;3.60;;;9.40;99.90;;;;;;5094452;28;20032;-80
2021/03/17 12:47:00;;;;;;;2.30;2.10;;;9.20;99.90;;;;;;5094696;28;20028;-80
2021/03/17 12:49:27;;;;;;;10.00;9.20;;;9.20;99.90;;;;;;5094745;28;20023;-80
2021/03/17 12:51:52;;;;;;;5.13;4.68;;;9.50;99.90;;;;;;5094623;28;20102;-80
2021/03/17 12:54:18;;;;;;;3.28;2.85;;;9.00;99.90;;;;;;5094666;28;20119;-80
2021/03/17 12:56:44;;;;;;;4.40;4.00;;;9.00;99.90;;;;;;5094499;28;20024;-80
2021/03/17 12:59:10;;;;;;;3.50;3.05;;;9.40;99.90;;;;;;5094170;28;20024;-80
2021/03/17 13:01:35;;;;;;;4.85;4.43;;;8.80;99.90;;;;;;5094556;28;20031;-80
2021/03/17 13:04:01;;;;;;;2.72;2.53;;;8.80;99.90;;;;;;5094204;28;20052;-80
2021/03/17 13:06:27;;;;;;;2.70;2.50;;;8.80;99.90;;;;;;5094386;28;20023;-80
2021/03/17 13:08:52;;;;;;;5.88;5.38;;;8.90;99.90;;;;;;5094326;28;20020;-80